Time;durP1;ratioP1;P1;durP2;ratioP2;P2;SDS_P1;SDS_P2;PMS_P1;PMS_P2;Temp;Humidity;BMP_temperature;BMP_pressure;BME280_temperature;BME280_humidity;BME280_pressure;Samples;Min_cycle;Max_cycle;Signal;HPM_P1;HPM_P2
2022/01/20 00:01:09;;;;;;;3.88;2.00;;;21.70;42.00;;;;;;5048532;28;43629;-65
2022/01/20 00:03:40;;;;;;;4.65;2.20;;;21.70;42.00;;;;;;5078124;27;43622;-66
2022/01/20 00:28:15;;;;;;;4.85;2.20;;;21.60;42.30;;;;;;5045952;28;44716;-65
2022/01/20 00:30:53;;;;;;;3.85;2.20;;;21.60;42.20;;;;;;5044885;28;43626;-65
2022/01/20 00:38:40;;;;;;;3.75;1.80;;;21.60;42.30;;;;;;5043752;28;44030;-65
2022/01/20 00:41:12;;;;;;;3.38;1.85;;;21.60;42.30;;;;;;5082978;27;43512;-65
2022/01/20 00:43:39;;;;;;;4.30;2.25;;;21.60;42.40;;;;;;5050413;28;43498;-65
2022/01/20 00:46:07;;;;;;;3.78;1.70;;;21.60;42.40;;;;;;5041049;28;43523;-65
2022/01/20 00:48:35;;;;;;;3.40;1.98;;;21.50;42.40;;;;;;5041058;28;44151;-65
2022/01/20 00:51:03;;;;;;;3.38;1.50;;;21.50;42.40;;;;;;5045247;28;43536;-65
2022/01/20 00:53:30;;;;;;;3.78;1.80;;;21.50;42.40;;;;;;5040048;28;43570;-65
2022/01/20 00:55:58;;;;;;;3.13;1.50;;;21.50;42.40;;;;;;5039147;28;43435;-65
2022/01/20 00:58:25;;;;;;;3.13;1.90;;;21.50;42.40;;;;;;5038012;28;44036;-65
2022/01/20 01:00:53;;;;;;;4.95;1.77;;;21.50;42.40;;;;;;5027901;28;43726;-65
2022/01/20 01:03:21;;;;;;;2.95;1.60;;;21.50;42.40;;;;;;5046091;28;43491;-64
2022/01/20 01:06:10;;;;;;;3.65;1.50;;;21.50;42.40;;;;;;5045203;28;43455;-66
2022/01/20 01:08:38;;;;;;;3.85;1.58;;;21.40;42.40;;;;;;5053883;28;43568;-65
2022/01/20 01:11:06;;;;;;;3.75;1.60;;;21.50;42.50;;;;;;5045466;28;43569;-65
2022/01/20 01:13:34;;;;;;;2.03;1.35;;;21.40;42.40;;;;;;5046613;28;43594;-65
2022/01/20 01:16:03;;;;;;;3.72;1.60;;;21.40;42.40;;;;;;5045585;28;43484;-64
2022/01/20 01:21:29;;;;;;;1.83;1.30;;;21.40;42.40;;;;;;5047084;28;43499;-65
2022/01/20 01:23:57;;;;;;;3.47;1.75;;;21.40;42.40;;;;;;5081837;27;43515;-65
2022/01/20 01:26:27;;;;;;;4.10;1.63;;;21.40;42.50;;;;;;5044336;28;43641;-65
2022/01/20 01:28:57;;;;;;;4.53;1.60;;;21.30;42.50;;;;;;5078898;27;43858;-65
2022/01/20 01:31:39;;;;;;;2.78;1.60;;;21.30;42.50;;;;;;5049302;28;43499;-65
2022/01/20 01:34:10;;;;;;;3.80;1.70;;;21.30;42.50;;;;;;5046825;28;43417;-65
2022/01/20 01:37:04;;;;;;;3.35;1.63;;;21.30;42.50;;;;;;5062529;28;43511;-66
2022/01/20 01:39:32;;;;;;;4.90;2.13;;;21.30;42.50;;;;;;5029472;28;44753;-64
2022/01/20 01:42:00;;;;;;;2.78;1.67;;;21.30;42.50;;;;;;5044716;28;43556;-65
2022/01/20 01:44:30;;;;;;;3.45;1.65;;;21.30;42.40;;;;;;5064871;28;43474;-65
2022/01/20 01:47:01;;;;;;;3.65;1.80;;;21.20;42.40;;;;;;5076752;27;43502;-65
2022/01/20 01:49:29;;;;;;;3.30;1.70;;;21.20;42.40;;;;;;5082937;27;43819;-65
2022/01/20 01:51:57;;;;;;;2.60;1.40;;;21.20;42.40;;;;;;5064177;28;43513;-65
2022/01/20 01:54:25;;;;;;;3.13;1.80;;;21.20;42.40;;;;;;5052480;28;43521;-65
2022/01/20 01:56:53;;;;;;;4.00;1.90;;;21.20;42.40;;;;;;5048914;28;43690;-65
2022/01/20 01:59:29;;;;;;;3.80;1.60;;;21.20;42.40;;;;;;5048274;28;44029;-64
2022/01/20 02:02:23;;;;;;;3.15;1.67;;;21.10;42.30;;;;;;5017942;28;44007;-65
2022/01/20 02:04:51;;;;;;;3.50;1.73;;;21.10;42.30;;;;;;5066353;28;43553;-65
2022/01/20 02:18:52;;;;;;;3.10;1.80;;;21.00;43.00;;;;;;5048087;28;43477;-66
2022/01/20 02:21:54;;;;;;;3.67;1.77;;;21.00;42.40;;;;;;5048866;28;43808;-65
2022/01/20 02:24:25;;;;;;;4.75;1.90;;;20.90;42.30;;;;;;5052711;28;44093;-65
2022/01/20 02:26:52;;;;;;;3.55;1.88;;;20.90;42.30;;;;;;5078896;27;44010;-65
2022/01/20 02:29:26;;;;;;;4.20;1.90;;;20.90;42.20;;;;;;5027148;28;43538;-65
2022/01/20 02:31:56;;;;;;;4.85;2.08;;;20.90;42.20;;;;;;5052418;28;44113;-66
2022/01/20 02:34:24;;;;;;;4.35;2.03;;;20.90;42.20;;;;;;5047333;28;43415;-65
2022/01/20 02:36:52;;;;;;;4.13;1.83;;;20.90;42.30;;;;;;5043018;28;43502;-66
2022/01/20 02:47:19;;;;;;;5.70;2.10;;;20.80;42.20;;;;;;5041702;28;44126;-66
2022/01/20 02:49:46;;;;;;;5.43;1.90;;;20.80;42.20;;;;;;5059120;28;43630;-65
2022/01/20 02:52:14;;;;;;;4.00;2.00;;;20.70;42.10;;;;;;5043091;28;43937;-65
2022/01/20 02:54:42;;;;;;;4.05;2.17;;;20.70;42.20;;;;;;5043073;28;43568;-65
2022/01/20 02:57:10;;;;;;;4.63;2.15;;;20.60;42.20;;;;;;5056085;28;43519;-66
2022/01/20 02:59:38;;;;;;;6.00;2.55;;;20.60;42.30;;;;;;5044811;28;44128;-65
2022/01/20 03:02:09;;;;;;;4.53;1.80;;;20.60;42.30;;;;;;5027438;28;44113;-65
2022/01/20 03:04:38;;;;;;;4.82;2.38;;;20.60;42.30;;;;;;5056446;28;43512;-65
2022/01/20 03:07:19;;;;;;;6.60;2.40;;;20.60;42.30;;;;;;5056531;28;43574;-65
2022/01/20 03:09:47;;;;;;;5.15;2.47;;;20.60;42.30;;;;;;5043747;28;43637;-65
2022/01/20 03:12:14;;;;;;;5.05;2.25;;;20.60;42.20;;;;;;5046484;28;44105;-65
2022/01/20 03:14:42;;;;;;;4.97;2.33;;;20.60;42.20;;;;;;5044830;28;43427;-66
2022/01/20 03:17:09;;;;;;;5.85;2.75;;;20.60;42.20;;;;;;5042828;28;43663;-65
2022/01/20 03:19:37;;;;;;;4.55;2.30;;;20.50;42.20;;;;;;5063793;28;43669;-65
2022/01/20 03:22:04;;;;;;;5.40;2.35;;;20.50;42.20;;;;;;5045482;28;44353;-65
2022/01/20 03:24:33;;;;;;;6.32;2.42;;;20.50;42.20;;;;;;5061678;28;43623;-65
2022/01/20 03:27:01;;;;;;;4.85;2.45;;;20.50;42.10;;;;;;5025354;28;43528;-65
2022/01/20 03:29:29;;;;;;;4.85;2.13;;;20.40;42.00;;;;;;5034929;28;43606;-65
2022/01/20 03:31:56;;;;;;;5.07;2.13;;;20.40;42.00;;;;;;5048304;28;44766;-65
2022/01/20 03:34:24;;;;;;;5.65;2.40;;;20.40;42.00;;;;;;5050485;28;44191;-65
2022/01/20 03:36:56;;;;;;;3.90;2.15;;;20.30;42.60;;;;;;5044535;28;43528;-65
2022/01/20 03:39:34;;;;;;;4.65;2.20;;;20.30;41.90;;;;;;5079399;27;43885;-65
2022/01/20 03:42:03;;;;;;;4.07;2.10;;;20.30;41.90;;;;;;5065208;28;44150;-65
2022/01/20 03:44:30;;;;;;;4.35;2.08;;;20.30;41.90;;;;;;5029339;28;43524;-65
2022/01/20 03:47:03;;;;;;;5.05;2.20;;;20.20;41.70;;;;;;5059432;28;43506;-65
2022/01/20 03:52:05;;;;;;;4.22;1.95;;;20.20;41.80;;;;;;5059593;28;44168;-64
2022/01/20 03:54:34;;;;;;;6.32;2.30;;;20.20;41.80;;;;;;5032809;28;43473;-65
2022/01/20 03:57:37;;;;;;;4.50;2.30;;;20.20;41.80;;;;;;5023722;28;43510;-66
2022/01/20 04:00:19;;;;;;;6.55;2.75;;;20.20;41.80;;;;;;5050623;28;43479;-65
2022/01/20 04:02:58;;;;;;;4.32;2.05;;;20.20;41.80;;;;;;5066680;28;44054;-64
2022/01/20 04:08:35;;;;;;;4.38;2.13;;;20.20;41.90;;;;;;5048136;28;43541;-65
2022/01/20 04:11:08;;;;;;;4.27;2.00;;;20.10;41.80;;;;;;5044965;28;44308;-65
2022/01/20 04:13:36;;;;;;;5.60;2.40;;;20.10;41.70;;;;;;5048355;28;44132;-65
2022/01/20 04:16:19;;;;;;;4.97;2.22;;;20.10;41.80;;;;;;5032824;28;43494;-65
2022/01/20 04:18:53;;;;;;;7.13;2.30;;;20.10;41.80;;;;;;5047607;28;44099;-65
2022/01/20 04:21:22;;;;;;;7.05;2.60;;;20.00;41.60;;;;;;5050672;28;43578;-64
2022/01/20 04:23:50;;;;;;;3.70;1.95;;;20.00;41.70;;;;;;5056532;28;44486;-65
2022/01/20 04:26:20;;;;;;;5.55;2.67;;;20.00;41.60;;;;;;5047023;28;43551;-66
2022/01/20 04:28:48;;;;;;;5.10;2.22;;;20.00;41.70;;;;;;5052102;28;44159;-65
2022/01/20 04:31:17;;;;;;;4.50;2.17;;;19.90;41.60;;;;;;5031070;28;43590;-65
2022/01/20 04:33:45;;;;;;;6.05;2.92;;;19.90;41.70;;;;;;5057285;28;45962;-64
2022/01/20 04:36:13;;;;;;;4.10;2.30;;;19.90;41.70;;;;;;5057472;28;43496;-66
2022/01/20 04:38:42;;;;;;;4.65;2.05;;;19.90;41.80;;;;;;5043098;28;43558;-65
2022/01/20 04:41:10;;;;;;;5.22;2.28;;;19.90;41.80;;;;;;5044088;28;43550;-65
2022/01/20 04:43:38;;;;;;;3.60;2.20;;;19.90;41.80;;;;;;5044836;28;44223;-65
2022/01/20 04:46:17;;;;;;;6.03;2.30;;;19.90;41.70;;;;;;5059601;28;43546;-65
2022/01/20 04:59:31;;;;;;;3.83;2.10;;;19.80;41.80;;;;;;5076998;27;43509;-65
2022/01/20 05:01:59;;;;;;;5.55;2.58;;;19.70;41.70;;;;;;5047127;28;43670;-65
2022/01/20 05:04:37;;;;;;;6.38;2.42;;;19.80;41.70;;;;;;5046321;28;43853;-65
2022/01/20 05:07:10;;;;;;;5.07;2.58;;;19.70;41.80;;;;;;5059676;28;43510;-65
2022/01/20 05:09:38;;;;;;;3.90;2.20;;;19.70;41.80;;;;;;5066114;28;43479;-65
2022/01/20 05:12:10;;;;;;;4.60;2.20;;;19.70;41.70;;;;;;5061244;28;43665;-66
2022/01/20 05:14:39;;;;;;;6.68;2.80;;;19.70;41.70;;;;;;5062067;28;43927;-65
2022/01/20 05:17:07;;;;;;;3.90;2.13;;;19.60;41.60;;;;;;5077433;27;43753;-65
2022/01/20 05:19:36;;;;;;;4.65;2.30;;;19.60;41.70;;;;;;5065195;28;43485;-65
2022/01/20 05:22:04;;;;;;;4.03;2.22;;;19.60;41.60;;;;;;5063603;28;43482;-65
2022/01/20 05:24:39;;;;;;;4.60;2.13;;;19.70;41.70;;;;;;5065517;28;43800;-65
2022/01/20 05:27:07;;;;;;;5.00;2.10;;;19.70;41.70;;;;;;5048859;28;44111;-65
2022/01/20 05:29:34;;;;;;;5.18;2.40;;;19.60;41.70;;;;;;5079983;27;43486;-65
2022/01/20 05:32:03;;;;;;;4.72;2.30;;;19.60;41.70;;;;;;5062338;28;43544;-65
2022/01/20 05:34:30;;;;;;;4.78;1.98;;;19.60;41.70;;;;;;5052335;28;44100;-65
2022/01/20 05:36:58;;;;;;;4.53;2.25;;;19.60;41.70;;;;;;5046907;28;43539;-66
2022/01/20 05:39:26;;;;;;;5.15;2.05;;;19.60;41.70;;;;;;5033363;28;43495;-65
2022/01/20 05:41:53;;;;;;;4.32;2.10;;;19.60;41.70;;;;;;5069825;28;43452;-65
2022/01/20 05:44:35;;;;;;;4.13;2.00;;;19.60;41.80;;;;;;5075189;27;43938;-65
2022/01/20 05:47:09;;;;;;;4.32;1.98;;;19.60;41.70;;;;;;5014272;28;43477;-65
2022/01/20 05:49:55;;;;;;;4.68;2.03;;;19.60;42.30;;;;;;5049438;28;44307;-65
2022/01/20 05:52:23;;;;;;;4.55;2.10;;;19.50;41.50;;;;;;5086010;27;43494;-65
2022/01/20 05:54:51;;;;;;;3.33;1.98;;;19.50;41.60;;;;;;5070682;28;44691;-65
2022/01/20 05:57:18;;;;;;;5.60;2.55;;;19.50;41.60;;;;;;5067204;28;43527;-65
2022/01/20 05:59:51;;;;;;;4.20;2.17;;;19.50;41.60;;;;;;5087382;27;43530;-65
2022/01/20 06:02:35;;;;;;;3.58;2.00;;;19.50;41.50;;;;;;5037576;28;44021;-65
2022/01/20 06:05:06;;;;;;;4.32;2.28;;;19.50;41.50;;;;;;5062783;28;45072;-65
2022/01/20 06:07:33;;;;;;;5.10;2.13;;;19.50;41.50;;;;;;5091684;27;43415;-65
2022/01/20 06:10:01;;;;;;;3.85;2.30;;;19.50;41.40;;;;;;5048061;28;43639;-65
2022/01/20 06:12:28;;;;;;;3.75;1.88;;;19.40;41.50;;;;;;5057494;28;43697;-66
2022/01/20 06:14:56;;;;;;;4.55;2.10;;;19.40;41.50;;;;;;5062224;28;43877;-65
2022/01/20 06:17:27;;;;;;;5.78;2.78;;;19.40;41.60;;;;;;5024324;28;43505;-65
2022/01/20 06:20:06;;;;;;;5.30;2.50;;;19.30;41.50;;;;;;5025416;28;43535;-65
2022/01/20 06:22:34;;;;;;;4.85;2.22;;;19.30;41.70;;;;;;5059360;28;43495;-65
2022/01/20 06:25:02;;;;;;;4.65;2.20;;;19.30;41.70;;;;;;5041655;28;43808;-65
2022/01/20 06:27:30;;;;;;;5.57;2.30;;;19.30;41.70;;;;;;5058815;28;43550;-65
2022/01/20 06:29:58;;;;;;;4.32;2.05;;;19.30;41.80;;;;;;5074072;27;43469;-65
2022/01/20 06:32:25;;;;;;;3.80;2.25;;;19.30;41.70;;;;;;5050169;28;43595;-65
2022/01/20 06:34:53;;;;;;;4.03;2.10;;;19.30;41.80;;;;;;5044842;28;43858;-65
2022/01/20 06:37:21;;;;;;;4.82;2.17;;;19.20;41.80;;;;;;5039859;28;43473;-66
2022/01/20 06:39:49;;;;;;;4.72;2.20;;;19.20;41.80;;;;;;5045360;28;43530;-65
2022/01/20 06:42:16;;;;;;;4.35;2.20;;;19.20;41.80;;;;;;5058740;28;43602;-65
2022/01/20 06:44:44;;;;;;;5.20;2.22;;;19.20;41.80;;;;;;5060740;28;43568;-65
2022/01/20 06:47:13;;;;;;;4.05;2.35;;;19.20;41.90;;;;;;5027598;28;43480;-64
2022/01/20 06:49:41;;;;;;;4.35;2.10;;;19.20;41.90;;;;;;5078845;27;43632;-65
2022/01/20 06:52:09;;;;;;;4.00;2.30;;;19.20;42.40;;;;;;5060332;28;43665;-65
2022/01/20 06:54:39;;;;;;;3.92;1.80;;;19.20;41.70;;;;;;5061778;28;43914;-64
2022/01/20 06:57:17;;;;;;;3.72;1.92;;;19.20;41.80;;;;;;5024547;28;44106;-64
2022/01/20 06:59:44;;;;;;;4.25;1.88;;;19.20;41.70;;;;;;5045101;28;43503;-65
2022/01/20 07:02:14;;;;;;;4.78;2.20;;;19.20;41.70;;;;;;5061618;28;43565;-66
2022/01/20 07:04:45;;;;;;;4.50;1.83;;;19.20;41.70;;;;;;5027973;28;44952;-65
2022/01/20 07:07:15;;;;;;;3.95;1.90;;;19.30;41.70;;;;;;5061731;28;43482;-65
2022/01/20 07:09:44;;;;;;;4.57;2.15;;;19.20;41.70;;;;;;5045634;28;43524;-64
2022/01/20 07:12:19;;;;;;;5.30;2.30;;;19.20;41.60;;;;;;5077824;27;43541;-64
2022/01/20 07:14:49;;;;;;;3.72;2.00;;;19.20;41.70;;;;;;5045057;28;44962;-64
2022/01/20 07:17:17;;;;;;;4.13;2.15;;;19.20;41.80;;;;;;5058409;28;43538;-65
2022/01/20 07:19:49;;;;;;;5.05;2.22;;;19.20;41.70;;;;;;5078703;27;43494;-64
2022/01/20 07:22:17;;;;;;;4.43;1.95;;;19.10;41.60;;;;;;5083450;27;43579;-64
2022/01/20 07:24:48;;;;;;;4.10;2.13;;;19.10;41.80;;;;;;5059967;28;44911;-65
2022/01/20 07:27:23;;;;;;;4.00;1.92;;;19.10;41.80;;;;;;5060068;28;43503;-65
2022/01/20 07:29:52;;;;;;;4.53;2.20;;;19.10;41.80;;;;;;5047511;28;43475;-64
2022/01/20 07:32:20;;;;;;;4.45;2.05;;;19.10;41.70;;;;;;5044228;28;43610;-65
2022/01/20 07:34:49;;;;;;;5.43;2.28;;;19.00;41.70;;;;;;5078574;27;43620;-64
2022/01/20 07:37:17;;;;;;;4.15;2.30;;;19.00;41.70;;;;;;5060673;28;44410;-64
2022/01/20 07:39:44;;;;;;;4.18;1.90;;;19.00;41.70;;;;;;5047077;28;43918;-64
2022/01/20 07:42:13;;;;;;;3.20;2.00;;;19.00;41.70;;;;;;5056289;28;43506;-65
2022/01/20 07:44:59;;;;;;;5.03;2.00;;;18.90;41.70;;;;;;5043932;28;43963;-64
2022/01/20 07:47:37;;;;;;;2.83;1.60;;;19.00;41.70;;;;;;5062595;28;43530;-64
2022/01/20 07:50:05;;;;;;;4.32;1.80;;;18.90;41.60;;;;;;5064272;28;43649;-65
2022/01/20 07:52:32;;;;;;;3.67;1.85;;;18.90;41.70;;;;;;5051182;28;44110;-64
2022/01/20 07:55:01;;;;;;;3.10;1.90;;;18.90;41.80;;;;;;5053689;28;44043;-65
2022/01/20 07:57:28;;;;;;;3.88;1.77;;;18.90;41.70;;;;;;5078851;27;43455;-65
2022/01/20 07:59:56;;;;;;;3.70;2.10;;;18.80;41.60;;;;;;5072711;27;43592;-64
2022/01/20 08:02:32;;;;;;;5.40;2.08;;;18.80;41.60;;;;;;5068447;28;43518;-64
2022/01/20 08:05:00;;;;;;;3.05;1.80;;;18.80;41.60;;;;;;5022969;28;44207;-64
2022/01/20 08:07:27;;;;;;;3.53;1.80;;;18.80;41.60;;;;;;5022922;28;43544;-64
2022/01/20 08:09:58;;;;;;;3.95;1.77;;;18.80;41.60;;;;;;5043898;28;43487;-64
2022/01/20 08:12:28;;;;;;;4.03;1.98;;;18.80;41.60;;;;;;5060140;28;43570;-64
2022/01/20 08:15:05;;;;;;;4.50;1.98;;;18.80;41.60;;;;;;5044366;28;44185;-64
2022/01/20 08:17:51;;;;;;;4.43;1.95;;;18.70;41.50;;;;;;5044014;28;43716;-64
2022/01/20 08:20:18;;;;;;;4.22;2.13;;;18.70;41.60;;;;;;5062425;28;43579;-65
2022/01/20 08:22:53;;;;;;;3.42;1.80;;;18.70;41.60;;;;;;5080059;27;43450;-64
2022/01/20 08:25:20;;;;;;;3.00;1.73;;;18.70;41.60;;;;;;5063379;28;44060;-65
2022/01/20 08:27:48;;;;;;;4.45;1.95;;;18.70;41.70;;;;;;5060396;28;43579;-64
2022/01/20 08:30:21;;;;;;;4.18;2.00;;;18.70;41.70;;;;;;5048161;28;43548;-64
2022/01/20 08:32:49;;;;;;;4.68;2.10;;;18.70;41.60;;;;;;5060904;28;43515;-64
2022/01/20 08:35:34;;;;;;;4.38;2.00;;;18.70;41.60;;;;;;5045155;28;43885;-64
2022/01/20 08:38:08;;;;;;;4.20;2.13;;;18.70;41.60;;;;;;5060199;28;44000;-65
2022/01/20 08:40:37;;;;;;;4.35;2.15;;;18.70;41.70;;;;;;5047050;28;43524;-65
2022/01/20 08:43:06;;;;;;;3.08;1.60;;;18.70;41.60;;;;;;5029299;28;43637;-64
2022/01/20 08:45:38;;;;;;;3.80;1.83;;;18.70;41.70;;;;;;5059319;28;43695;-64
2022/01/20 08:48:08;;;;;;;4.13;1.77;;;18.60;41.60;;;;;;5064519;28;43508;-65
2022/01/20 08:50:54;;;;;;;4.43;1.90;;;18.60;41.60;;;;;;5050439;28;43446;-64
2022/01/20 08:53:23;;;;;;;3.97;1.80;;;18.60;41.70;;;;;;5068534;28;43527;-65
2022/01/20 08:55:50;;;;;;;3.58;1.75;;;18.60;41.70;;;;;;5080307;27;43827;-64
2022/01/20 08:58:20;;;;;;;5.85;2.33;;;18.60;41.80;;;;;;5065603;28;45061;-64
2022/01/20 09:00:47;;;;;;;3.47;2.13;;;18.60;41.90;;;;;;5067759;28;43466;-64
2022/01/20 09:03:15;;;;;;;3.85;1.67;;;18.60;41.90;;;;;;5081338;27;43469;-64
2022/01/20 09:05:43;;;;;;;4.63;2.13;;;18.60;41.80;;;;;;5046354;28;44479;-64
2022/01/20 09:08:12;;;;;;;5.85;2.08;;;18.60;41.80;;;;;;5059645;28;44111;-64
2022/01/20 09:10:54;;;;;;;3.17;2.13;;;18.50;41.80;;;;;;5060639;28;43538;-65
2022/01/20 09:16:13;;;;;;;4.00;1.77;;;18.50;41.80;;;;;;5063566;28;43577;-65
2022/01/20 09:19:01;;;;;;;4.40;1.98;;;18.50;41.80;;;;;;5044107;28;43638;-64
2022/01/20 09:21:34;;;;;;;3.63;1.95;;;18.50;41.80;;;;;;5070535;28;43546;-64
2022/01/20 09:24:02;;;;;;;4.88;2.03;;;18.50;41.80;;;;;;5050576;28;43585;-64
2022/01/20 09:26:31;;;;;;;3.88;1.95;;;18.50;41.80;;;;;;5069060;28;44061;-64
2022/01/20 09:29:00;;;;;;;5.38;2.00;;;18.50;41.80;;;;;;5070504;28;43578;-65
2022/01/20 09:31:36;;;;;;;4.60;1.98;;;18.50;41.80;;;;;;5050291;28;43541;-65
2022/01/20 09:34:05;;;;;;;5.07;2.30;;;18.50;41.80;;;;;;5045273;28;43471;-64
2022/01/20 09:36:36;;;;;;;4.50;2.45;;;18.50;41.80;;;;;;5061233;28;44187;-65
2022/01/20 09:39:04;;;;;;;3.53;2.08;;;18.50;41.80;;;;;;5066151;28;43433;-64
2022/01/20 09:41:52;;;;;;;2.67;1.90;;;18.50;41.80;;;;;;5048441;28;43499;-64
2022/01/20 09:44:20;;;;;;;3.80;1.60;;;18.50;41.80;;;;;;5049179;28;43531;-65
2022/01/20 09:46:48;;;;;;;4.70;2.10;;;18.50;41.80;;;;;;5067543;28;46168;-65
2022/01/20 09:49:30;;;;;;;3.67;1.90;;;18.50;41.80;;;;;;5065830;28;43490;-64
2022/01/20 09:52:01;;;;;;;4.00;2.20;;;18.50;41.80;;;;;;5030319;28;43499;-64
2022/01/20 09:54:38;;;;;;;4.22;1.85;;;18.50;41.90;;;;;;5070323;28;43503;-64
2022/01/20 09:57:14;;;;;;;4.03;1.90;;;18.50;41.80;;;;;;5040834;28;45134;-65
2022/01/20 09:59:42;;;;;;;4.30;2.20;;;18.50;41.80;;;;;;5060336;28;43679;-62
2022/01/20 10:02:17;;;;;;;4.40;2.20;;;18.50;41.90;;;;;;5059074;28;43411;-64
2022/01/20 10:04:48;;;;;;;4.25;2.00;;;18.60;41.90;;;;;;5042626;28;43551;-64
2022/01/20 10:07:32;;;;;;;5.55;2.38;;;18.60;42.00;;;;;;5024232;28;46057;-65
2022/01/20 10:10:04;;;;;;;3.60;2.08;;;18.60;41.90;;;;;;5044050;28;43488;-64
2022/01/20 10:13:09;;;;;;;5.10;2.20;;;18.60;41.90;;;;;;5025663;28;44163;-64
2022/01/20 10:16:07;;;;;;;3.92;2.10;;;18.60;42.00;;;;;;5059631;28;43819;-65
2022/01/20 10:18:54;;;;;;;4.35;2.10;;;18.50;42.10;;;;;;5059528;28;44203;-65
2022/01/20 10:21:38;;;;;;;2.90;1.88;;;18.50;42.10;;;;;;5045416;28;43687;-65
2022/01/20 10:24:33;;;;;;;4.32;1.70;;;18.50;42.10;;;;;;5061728;28;43464;-64
2022/01/20 10:27:14;;;;;;;4.20;2.03;;;18.60;42.20;;;;;;5047681;28;43630;-64
2022/01/20 10:29:58;;;;;;;3.33;1.90;;;18.60;41.90;;;;;;5047014;28;44262;-64
2022/01/20 10:32:39;;;;;;;4.25;2.08;;;18.60;41.90;;;;;;5045029;28;43599;-64
2022/01/20 10:35:10;;;;;;;3.67;2.20;;;18.60;41.90;;;;;;5043965;28;43512;-65
2022/01/20 10:37:58;;;;;;;4.63;2.33;;;18.60;42.00;;;;;;5059584;28;43595;-65
2022/01/20 10:40:32;;;;;;;4.10;2.03;;;18.60;42.00;;;;;;5062091;28;43857;-65
2022/01/20 10:43:01;;;;;;;4.53;2.03;;;18.60;42.00;;;;;;5063074;28;43481;-65
2022/01/20 10:45:29;;;;;;;5.30;2.33;;;18.70;42.00;;;;;;5062957;28;43626;-64
2022/01/20 10:48:00;;;;;;;5.30;2.13;;;18.70;42.00;;;;;;5053227;28;43490;-64
2022/01/20 10:50:35;;;;;;;4.28;2.17;;;18.70;42.00;;;;;;5046160;28;44943;-64
2022/01/20 10:53:17;;;;;;;4.00;1.88;;;18.70;42.00;;;;;;5079322;27;43447;-64
2022/01/20 10:55:46;;;;;;;4.68;1.92;;;18.70;42.60;;;;;;5079426;27;43525;-65
2022/01/20 10:58:23;;;;;;;3.53;1.55;;;18.70;41.90;;;;;;5045021;28;43480;-65
2022/01/20 11:00:56;;;;;;;5.20;2.10;;;18.80;42.10;;;;;;5030754;28;44956;-64
2022/01/20 11:03:27;;;;;;;4.60;2.00;;;18.80;42.00;;;;;;5045027;28;43581;-64
2022/01/20 11:05:58;;;;;;;4.40;1.90;;;18.80;41.90;;;;;;5046067;28;43547;-65
2022/01/20 11:08:38;;;;;;;5.20;2.15;;;18.80;41.90;;;;;;5051008;28;43484;-65
2022/01/20 11:11:08;;;;;;;3.40;1.80;;;18.80;41.90;;;;;;5029467;28;44668;-64
2022/01/20 11:13:55;;;;;;;4.18;1.83;;;18.80;41.80;;;;;;5042727;28;43615;-64
2022/01/20 11:16:23;;;;;;;5.35;2.25;;;18.90;41.80;;;;;;5073823;27;43507;-65
2022/01/20 11:18:53;;;;;;;3.92;1.80;;;18.90;41.80;;;;;;5028716;28;43638;-64
2022/01/20 11:21:25;;;;;;;5.78;2.20;;;18.90;41.90;;;;;;5077125;27;43791;-64
2022/01/20 11:23:54;;;;;;;5.38;2.10;;;18.80;41.90;;;;;;5028602;28;44654;-65
2022/01/20 11:26:35;;;;;;;4.03;2.00;;;18.80;42.00;;;;;;5076944;27;43522;-64
2022/01/20 11:29:48;;;;;;;4.07;1.80;;;18.80;42.10;;;;;;5044134;28;43491;-64
2022/01/20 11:33:07;;;;;;;4.72;2.10;;;18.80;42.10;;;;;;5034778;28;44000;-64
2022/01/20 11:35:49;;;;;;;5.45;2.17;;;18.90;42.20;;;;;;5041018;28;43976;-64
2022/01/20 11:38:20;;;;;;;4.35;2.15;;;18.90;42.30;;;;;;5042312;28;43548;-65
2022/01/20 11:40:57;;;;;;;5.68;2.45;;;18.90;42.20;;;;;;5048553;28;43588;-65
2022/01/20 11:43:40;;;;;;;5.43;2.22;;;18.90;42.20;;;;;;5079567;27;44178;-66
2022/01/20 11:46:23;;;;;;;3.55;2.30;;;18.90;42.20;;;;;;5077357;27;44391;-64
2022/01/20 11:49:06;;;;;;;2.65;1.73;;;18.90;42.20;;;;;;5076989;27;43454;-64
2022/01/20 11:51:48;;;;;;;3.35;1.80;;;18.90;42.20;;;;;;5081695;27;43558;-65
2022/01/20 11:54:40;;;;;;;3.47;1.98;;;18.90;42.30;;;;;;5050023;28;44717;-64
2022/01/20 11:57:08;;;;;;;3.90;1.95;;;19.00;42.40;;;;;;5100047;27;44083;-64
2022/01/20 11:59:45;;;;;;;3.53;2.13;;;19.00;42.20;;;;;;5051411;28;43527;-64
2022/01/20 12:02:37;;;;;;;3.03;1.70;;;19.10;43.00;;;;;;5063190;28;43563;-65
2022/01/20 12:05:28;;;;;;;3.58;1.88;;;19.10;42.20;;;;;;5063402;28;44735;-65
2022/01/20 12:08:18;;;;;;;3.78;1.70;;;19.10;42.10;;;;;;5043207;28;43549;-64
2022/01/20 12:11:07;;;;;;;3.90;1.98;;;19.20;42.10;;;;;;5049862;28;43538;-64
2022/01/20 12:13:49;;;;;;;4.47;1.98;;;19.20;42.10;;;;;;5047905;28;43610;-65
2022/01/20 12:16:21;;;;;;;3.28;1.95;;;19.20;41.90;;;;;;5046531;28;44942;-64
2022/01/20 12:18:54;;;;;;;4.63;2.15;;;19.20;41.90;;;;;;5045895;28;43465;-64
2022/01/20 12:21:26;;;;;;;3.08;1.90;;;19.20;41.90;;;;;;5051075;28;43475;-65
2022/01/20 12:23:55;;;;;;;3.53;1.77;;;19.30;42.00;;;;;;5049507;28;43452;-64
2022/01/20 12:26:23;;;;;;;3.08;1.88;;;19.30;41.90;;;;;;5065068;28;44207;-64
2022/01/20 12:29:10;;;;;;;4.65;2.05;;;19.40;41.80;;;;;;5045664;28;43514;-63
2022/01/20 12:31:55;;;;;;;5.13;2.30;;;19.40;41.90;;;;;;5045173;28;43976;-64
2022/01/20 12:34:23;;;;;;;4.55;1.95;;;19.50;41.80;;;;;;5046462;28;43869;-64
2022/01/20 12:36:56;;;;;;;6.20;2.13;;;19.50;41.80;;;;;;5047365;28;44986;-64
2022/01/20 12:39:28;;;;;;;3.45;1.90;;;19.50;41.60;;;;;;5044158;28;43995;-64
2022/01/20 12:42:04;;;;;;;5.38;2.40;;;19.50;41.60;;;;;;5084256;27;43486;-64
2022/01/20 12:44:54;;;;;;;4.00;1.83;;;19.60;41.60;;;;;;5051395;28;43585;-65
2022/01/20 12:47:28;;;;;;;3.60;2.28;;;19.60;41.60;;;;;;5037261;28;43826;-65
2022/01/20 12:50:00;;;;;;;3.85;2.05;;;19.60;41.60;;;;;;5078757;27;43486;-65
2022/01/20 12:52:28;;;;;;;5.70;2.20;;;19.60;41.50;;;;;;5046183;28;43521;-65
2022/01/20 12:54:56;;;;;;;4.47;2.13;;;19.60;41.40;;;;;;5053534;28;43651;-65
2022/01/20 12:57:23;;;;;;;4.85;1.98;;;19.70;41.50;;;;;;5077805;27;44965;-65
2022/01/20 12:59:54;;;;;;;7.18;2.50;;;19.70;41.40;;;;;;5048313;28;43554;-65
2022/01/20 13:02:28;;;;;;;3.78;2.10;;;19.70;41.50;;;;;;5043433;28;43462;-64
2022/01/20 13:05:01;;;;;;;4.00;2.10;;;19.80;41.40;;;;;;5046669;28;43585;-64
2022/01/20 13:07:30;;;;;;;5.25;2.08;;;19.80;41.40;;;;;;5047628;28;44915;-65
2022/01/20 13:10:30;;;;;;;3.60;1.83;;;19.80;41.40;;;;;;5063457;28;43465;-64
2022/01/20 13:12:57;;;;;;;5.68;2.35;;;19.90;41.40;;;;;;5047767;28;44120;-64
2022/01/20 13:15:26;;;;;;;5.20;2.17;;;19.80;41.30;;;;;;5046180;28;43601;-64
2022/01/20 13:18:01;;;;;;;3.80;1.80;;;19.80;41.20;;;;;;5047051;28;43940;-65
2022/01/20 13:20:31;;;;;;;4.63;1.77;;;19.90;41.20;;;;;;5048531;28;43499;-64
2022/01/20 13:23:54;;;;;;;4.03;2.00;;;19.90;41.20;;;;;;5045443;28;43431;-65
2022/01/20 13:26:05;;;;;;;3.90;2.03;;;19.90;41.20;;;;;;5046299;28;43530;-64
2022/01/20 13:28:33;;;;;;;3.63;2.15;;;19.90;41.20;;;;;;5048756;28;44044;-64
2022/01/20 13:31:13;;;;;;;4.63;2.13;;;19.90;41.20;;;;;;5047418;28;43507;-65
2022/01/20 13:33:41;;;;;;;4.70;1.90;;;19.90;41.20;;;;;;5047863;28;43465;-65
2022/01/20 13:36:10;;;;;;;3.90;1.65;;;19.90;41.30;;;;;;5078923;27;43693;-64
2022/01/20 13:38:46;;;;;;;4.93;2.38;;;20.00;41.20;;;;;;5047428;28;44228;-64
2022/01/20 13:41:19;;;;;;;3.25;1.90;;;20.00;41.20;;;;;;5079777;27;45025;-65
2022/01/20 13:46:39;;;;;;;3.78;1.95;;;20.00;41.10;;;;;;5080157;27;43588;-64
2022/01/20 13:49:21;;;;;;;4.85;2.25;;;20.00;41.20;;;;;;5048075;28;44223;-65
2022/01/20 13:52:10;;;;;;;5.15;2.20;;;20.00;41.10;;;;;;5048855;28;43519;-64
2022/01/20 13:54:43;;;;;;;3.97;2.30;;;20.00;41.10;;;;;;5083864;27;43523;-64
2022/01/20 13:57:38;;;;;;;4.80;2.15;;;20.00;41.10;;;;;;5082788;27;43489;-65
2022/01/20 14:00:10;;;;;;;5.05;2.20;;;20.00;41.10;;;;;;5049520;28;44010;-65
2022/01/20 14:02:39;;;;;;;3.33;2.25;;;20.00;41.10;;;;;;5046320;28;43570;-65
2022/01/20 14:05:07;;;;;;;3.75;1.83;;;20.00;41.20;;;;;;5047514;28;43514;-65
2022/01/20 14:07:35;;;;;;;4.57;1.92;;;20.00;41.10;;;;;;5046995;28;43547;-64
2022/01/20 14:10:02;;;;;;;5.43;2.40;;;20.00;41.10;;;;;;5067954;28;44138;-64
2022/01/20 14:12:30;;;;;;;3.72;1.90;;;20.00;41.70;;;;;;5053195;28;43549;-64
2022/01/20 14:14:58;;;;;;;4.65;2.00;;;20.00;41.10;;;;;;5050190;28;43535;-65
2022/01/20 14:17:26;;;;;;;3.90;1.85;;;20.00;41.10;;;;;;5050246;28;43452;-64
2022/01/20 14:19:59;;;;;;;4.35;2.00;;;20.10;41.10;;;;;;5052464;28;44943;-64
2022/01/20 14:22:26;;;;;;;4.10;1.90;;;20.10;41.10;;;;;;5048184;28;43457;-64
2022/01/20 14:24:54;;;;;;;5.63;2.20;;;20.10;41.10;;;;;;5048026;28;43513;-64
2022/01/20 14:27:21;;;;;;;5.15;1.95;;;20.10;41.20;;;;;;5049284;28;44094;-65
2022/01/20 14:29:49;;;;;;;4.30;2.22;;;20.10;41.10;;;;;;5046877;28;43771;-65